createdAt,value
2023-05-08T00:00:26.170Z,8.57
2023-05-08T00:02:56.149Z,8.37
2023-05-08T00:05:26.219Z,7.83
2023-05-08T00:08:01.471Z,8.13
2023-05-08T00:10:32.175Z,8.37
2023-05-08T00:13:04.598Z,8.20
2023-05-08T00:15:34.417Z,7.63
2023-05-08T00:18:04.214Z,8.83
2023-05-08T00:20:34.528Z,9.87
2023-05-08T00:23:04.262Z,8.20
2023-05-08T00:25:34.156Z,9.00
2023-05-08T00:28:06.552Z,9.00
2023-05-08T00:30:36.548Z,8.77
2023-05-08T00:33:06.519Z,8.80
2023-05-08T00:35:36.386Z,8.60
2023-05-08T00:38:06.174Z,8.93
2023-05-08T00:40:36.042Z,9.30
2023-05-08T00:43:08.436Z,8.70
2023-05-08T00:45:40.726Z,8.83
2023-05-08T00:48:11.108Z,9.63
2023-05-08T00:50:40.931Z,9.00
2023-05-08T00:53:10.895Z,8.63
2023-05-08T00:55:41.227Z,9.77
2023-05-08T00:58:14.140Z,10.13
2023-05-08T01:00:46.781Z,9.53
2023-05-08T01:03:17.727Z,10.20
2023-05-08T01:05:48.604Z,10.10
2023-05-08T01:08:18.753Z,10.30
2023-05-08T01:11:04.690Z,10.70
2023-05-08T01:13:52.696Z,9.00
2023-05-08T01:16:31.447Z,9.53
2023-05-08T01:19:09.984Z,10.93
2023-05-08T01:21:46.899Z,10.60
2023-05-08T01:24:45.461Z,9.00
2023-05-08T01:27:43.589Z,10.40
2023-05-08T01:30:48.824Z,10.13
2023-05-08T01:33:27.547Z,9.73
2023-05-08T01:36:02.161Z,10.50
2023-05-08T01:38:36.394Z,11.00
2023-05-08T01:41:11.775Z,11.47
2023-05-08T01:43:50.085Z,11.13
2023-05-08T01:46:25.645Z,11.20
2023-05-08T01:49:06.587Z,11.20
2023-05-08T01:51:43.907Z,12.20
2023-05-08T01:54:18.655Z,11.37
2023-05-08T01:56:50.843Z,11.40
2023-05-08T01:59:24.853Z,12.30
2023-05-08T02:01:58.914Z,12.40
2023-05-08T02:04:32.561Z,12.53
2023-05-08T02:07:03.783Z,12.30
2023-05-08T02:09:34.386Z,12.50
2023-05-08T02:12:05.845Z,11.70
2023-05-08T02:14:36.781Z,12.20
2023-05-08T02:17:09.588Z,12.70
2023-05-08T02:19:44.103Z,11.53
2023-05-08T02:22:14.884Z,12.70
2023-05-08T02:24:48.289Z,13.53
2023-05-08T02:27:19.476Z,12.50
2023-05-08T02:29:49.899Z,13.37
2023-05-08T02:32:21.902Z,14.10
2023-05-08T02:35:03.228Z,12.30
2023-05-08T02:37:34.880Z,13.60
2023-05-08T02:40:06.838Z,13.70
2023-05-08T02:42:36.718Z,13.50
2023-05-08T02:45:07.207Z,12.20
2023-05-08T02:47:48.973Z,13.00
2023-05-08T02:50:25.764Z,12.63
2023-05-08T02:53:03.250Z,13.33
2023-05-08T02:55:43.259Z,13.33
2023-05-08T02:58:21.817Z,12.23
2023-05-08T03:00:57.970Z,12.57
2023-05-08T03:03:31.805Z,11.80
2023-05-08T03:06:06.374Z,12.50
2023-05-08T03:08:38.125Z,12.27
2023-05-08T03:11:14.701Z,12.17
2023-05-08T03:13:47.028Z,12.37
2023-05-08T03:16:21.285Z,12.30
2023-05-08T03:18:55.786Z,12.20
2023-05-08T03:21:32.033Z,11.30
2023-05-08T03:24:05.029Z,12.20
2023-05-08T03:26:35.222Z,13.47
2023-05-08T03:29:05.844Z,12.17
2023-05-08T03:31:38.019Z,12.47
2023-05-08T03:34:09.603Z,12.70
2023-05-08T03:36:42.429Z,12.80
2023-05-08T03:39:12.645Z,12.53
2023-05-08T03:41:43.304Z,12.47
2023-05-08T03:44:14.526Z,11.67
2023-05-08T03:46:45.530Z,13.10
2023-05-08T03:49:17.230Z,11.97
2023-05-08T03:51:50.377Z,11.73
2023-05-08T03:54:20.218Z,13.23
2023-05-08T03:56:50.061Z,12.20
2023-05-08T03:59:27.569Z,12.60
2023-05-08T04:02:08.085Z,11.37
2023-05-08T04:04:42.670Z,12.87
2023-05-08T04:07:27.331Z,12.27
2023-05-08T04:10:03.277Z,12.00
2023-05-08T04:12:42.631Z,11.20
2023-05-08T04:15:17.380Z,12.33
2023-05-08T04:17:52.784Z,12.57
2023-05-08T04:20:24.996Z,11.17
2023-05-08T04:22:58.701Z,11.97
2023-05-08T04:25:29.296Z,12.37
2023-05-08T04:27:59.295Z,12.97
2023-05-08T04:30:30.631Z,11.43
2023-05-08T04:33:02.072Z,12.03
2023-05-08T04:35:32.795Z,12.77
2023-05-08T04:38:05.791Z,11.60
2023-05-08T04:40:35.719Z,11.43
2023-05-08T04:43:06.262Z,12.73
2023-05-08T04:45:36.333Z,12.07
2023-05-08T04:48:06.443Z,11.07
2023-05-08T04:50:36.326Z,10.83
2023-05-08T04:53:09.009Z,11.63
2023-05-08T04:55:39.142Z,12.10
2023-05-08T04:58:09.216Z,11.33
2023-05-08T05:00:39.464Z,11.30
2023-05-08T05:03:09.393Z,11.30
2023-05-08T05:05:39.357Z,11.13
2023-05-08T05:08:14.481Z,11.20
2023-05-08T05:10:44.471Z,11.70
2023-05-08T05:13:14.337Z,11.40
2023-05-08T05:15:45.188Z,11.07
2023-05-08T05:18:16.026Z,11.80
2023-05-08T05:20:46.242Z,11.30
2023-05-08T05:23:18.957Z,12.23
2023-05-08T05:25:48.803Z,12.20
2023-05-08T05:28:19.389Z,11.20
2023-05-08T05:30:50.117Z,11.67
2023-05-08T05:33:20.337Z,10.77
2023-05-08T05:35:50.300Z,11.20
2023-05-08T05:38:22.759Z,10.67
2023-05-08T05:40:52.681Z,10.87
2023-05-08T05:43:22.464Z,11.63
2023-05-08T05:45:52.266Z,10.77
2023-05-08T05:48:22.471Z,10.40
2023-05-08T05:50:52.684Z,11.10
2023-05-08T05:53:25.502Z,10.17
2023-05-08T05:55:55.863Z,10.30
2023-05-08T05:58:26.044Z,10.57
2023-05-08T06:00:56.108Z,11.00
2023-05-08T06:03:25.962Z,10.20
2023-05-08T06:05:56.604Z,9.50
2023-05-08T06:08:30.824Z,11.10
2023-05-08T06:11:03.844Z,10.30
2023-05-08T06:13:33.953Z,9.77
2023-05-08T06:16:04.169Z,9.20
2023-05-08T06:18:33.965Z,9.60
2023-05-08T06:21:03.788Z,10.57
2023-05-08T06:23:36.184Z,9.73
2023-05-08T06:26:06.206Z,9.20
2023-05-08T06:28:36.391Z,9.37
2023-05-08T06:31:06.461Z,9.90
2023-05-08T06:33:36.280Z,9.63
2023-05-08T06:36:07.400Z,9.73
2023-05-08T06:38:39.749Z,9.93
2023-05-08T06:41:09.618Z,9.57
2023-05-08T06:43:39.387Z,9.23
2023-05-08T06:46:09.211Z,9.90
2023-05-08T06:48:39.058Z,10.20
2023-05-08T06:51:08.939Z,10.43
2023-05-08T06:53:41.285Z,9.97
2023-05-08T06:56:11.147Z,9.30
2023-05-08T06:58:40.909Z,9.40
2023-05-08T07:01:10.855Z,9.87
2023-05-08T07:03:41.788Z,11.10
2023-05-08T07:06:12.334Z,10.20
2023-05-08T07:08:44.724Z,9.90
2023-05-08T07:11:14.533Z,10.07
2023-05-08T07:13:46.368Z,10.10
2023-05-08T07:16:16.491Z,9.67
2023-05-08T07:18:46.815Z,9.50
2023-05-08T07:21:18.232Z,8.83
2023-05-08T07:23:51.891Z,10.10
2023-05-08T07:26:21.674Z,9.30
2023-05-08T07:28:53.975Z,9.90
2023-05-08T07:31:24.151Z,9.30
2023-05-08T07:33:53.954Z,10.00
2023-05-08T07:36:23.793Z,9.50
2023-05-08T07:38:56.820Z,9.20
2023-05-08T07:41:26.723Z,9.70
2023-05-08T07:43:56.558Z,10.30
2023-05-08T07:46:26.559Z,10.30
2023-05-08T07:48:56.540Z,9.47
2023-05-08T07:51:26.564Z,8.90
2023-05-08T07:53:58.964Z,10.17
2023-05-08T07:56:28.859Z,8.93
2023-05-08T07:58:58.637Z,9.37
2023-05-08T08:01:28.417Z,9.37
2023-05-08T08:03:58.328Z,10.80
2023-05-08T08:06:28.841Z,10.20
2023-05-08T08:09:01.251Z,9.80
2023-05-08T08:11:31.023Z,9.60
2023-05-08T08:14:00.907Z,9.20
2023-05-08T08:16:33.269Z,8.60
2023-05-08T08:19:03.026Z,9.43
2023-05-08T08:21:33.209Z,8.57
2023-05-08T08:24:05.560Z,9.00
2023-05-08T08:26:35.516Z,8.60
2023-05-08T08:29:05.350Z,8.80
2023-05-08T08:31:35.264Z,10.50
2023-05-08T08:34:05.211Z,8.53
2023-05-08T08:36:35.573Z,9.30
2023-05-08T08:39:10.394Z,9.90
2023-05-08T08:41:42.242Z,8.90
2023-05-08T08:44:12.369Z,9.17
2023-05-08T08:46:48.128Z,8.77
2023-05-08T08:49:21.757Z,9.00
2023-05-08T08:51:55.876Z,9.70
2023-05-08T08:54:32.393Z,9.10
2023-05-08T08:57:04.705Z,9.23
2023-05-08T08:59:35.703Z,9.40
2023-05-08T09:02:18.038Z,10.63
2023-05-08T09:04:48.053Z,9.17
2023-05-08T09:07:18.235Z,10.73
2023-05-08T09:09:51.187Z,9.47
2023-05-08T09:12:21.193Z,9.87
2023-05-08T09:14:51.142Z,9.90
2023-05-08T09:17:20.894Z,10.87
2023-05-08T09:19:52.090Z,9.77
2023-05-08T09:22:24.504Z,9.40
2023-05-08T09:25:01.185Z,10.00
2023-05-08T09:27:33.018Z,8.93
2023-05-08T09:30:04.951Z,8.77
2023-05-08T09:32:37.866Z,9.87
2023-05-08T09:35:09.793Z,9.87
2023-05-08T09:37:41.815Z,8.70
2023-05-08T09:40:22.246Z,8.87
2023-05-08T09:42:53.088Z,10.53
2023-05-08T09:45:31.452Z,9.27
2023-05-08T09:48:02.016Z,9.13
2023-05-08T09:50:33.280Z,9.53
2023-05-08T09:53:03.172Z,9.17
2023-05-08T09:55:49.546Z,9.40
2023-05-08T09:58:19.371Z,9.60
2023-05-08T10:00:49.211Z,8.63
2023-05-08T10:03:19.024Z,8.00
2023-05-08T10:05:48.769Z,8.80
2023-05-08T10:08:23.374Z,8.40
2023-05-08T10:10:55.887Z,8.53
2023-05-08T10:13:26.348Z,8.13
2023-05-08T10:15:58.087Z,8.60
2023-05-08T10:18:32.972Z,8.60
2023-05-08T10:21:09.282Z,10.17
2023-05-08T10:23:40.739Z,7.80
2023-05-08T10:26:15.518Z,8.00
2023-05-08T10:28:49.212Z,8.03
2023-05-08T10:31:21.151Z,8.80
2023-05-08T10:33:54.102Z,8.30
2023-05-08T10:36:24.793Z,9.03
2023-05-08T10:38:55.008Z,7.97
2023-05-08T10:41:28.906Z,9.00
2023-05-08T10:44:01.620Z,7.90
2023-05-08T10:46:39.394Z,8.63
2023-05-08T10:49:22.943Z,7.87
2023-05-08T10:52:05.026Z,7.83
2023-05-08T10:54:45.262Z,8.10
2023-05-08T10:57:18.191Z,7.70
2023-05-08T10:59:49.481Z,7.73
2023-05-08T11:02:19.509Z,8.07
2023-05-08T11:04:51.104Z,6.33
2023-05-08T11:07:20.961Z,8.10
2023-05-08T11:09:51.248Z,7.47
2023-05-08T11:12:30.742Z,6.97
2023-05-08T11:15:06.236Z,7.50
2023-05-08T11:17:36.848Z,6.73
2023-05-08T11:20:09.046Z,7.63
2023-05-08T11:22:39.529Z,7.90
2023-05-08T11:25:11.941Z,8.67
2023-05-08T11:28:17.964Z,10.20
2023-05-08T11:30:50.428Z,10.30
2023-05-08T11:33:21.215Z,7.00
2023-05-08T11:35:56.503Z,6.90
2023-05-08T11:38:28.961Z,6.87
2023-05-08T11:41:01.310Z,6.63
2023-05-08T11:44:09.515Z,5.90
2023-05-08T11:46:45.542Z,6.70
2023-05-08T11:49:18.907Z,6.60
2023-05-08T11:51:55.274Z,6.47
2023-05-08T11:54:25.699Z,6.40
2023-05-08T11:56:57.655Z,6.50
2023-05-08T11:59:27.501Z,6.77
2023-05-08T12:02:08.679Z,6.43
2023-05-08T12:04:46.668Z,6.27
2023-05-08T12:07:17.063Z,6.00
2023-05-08T12:09:48.818Z,6.30
2023-05-08T12:12:18.686Z,7.30
2023-05-08T12:14:52.660Z,6.10
2023-05-08T12:17:25.204Z,6.00
2023-05-08T12:20:04.309Z,6.20
2023-05-08T12:22:34.356Z,6.00
2023-05-08T12:25:06.756Z,5.97
2023-05-08T12:27:36.617Z,6.40
2023-05-08T12:30:10.972Z,6.50
2023-05-08T12:32:44.922Z,5.60
2023-05-08T12:35:16.467Z,5.60
2023-05-08T12:37:48.425Z,5.63
2023-05-08T12:40:29.310Z,6.23
2023-05-08T12:42:59.202Z,6.40
2023-05-08T12:45:31.684Z,6.80
2023-05-08T12:48:05.685Z,6.73
2023-05-08T12:50:37.888Z,6.40
2023-05-08T12:53:09.438Z,6.97
2023-05-08T12:55:40.997Z,7.07
2023-05-08T12:58:15.069Z,6.60
2023-05-08T13:00:47.253Z,7.20
2023-05-08T13:03:26.908Z,6.77
2023-05-08T13:05:58.934Z,7.27
2023-05-08T13:08:34.345Z,6.87
2023-05-08T13:11:05.444Z,7.30
2023-05-08T13:13:36.726Z,7.67
2023-05-08T13:16:08.512Z,7.40
2023-05-08T13:18:40.974Z,7.47
2023-05-08T13:21:10.763Z,7.40
2023-05-08T13:23:42.764Z,7.33
2023-05-08T13:26:12.708Z,7.53
2023-05-08T13:28:42.471Z,8.37
2023-05-08T13:31:12.420Z,7.80
2023-05-08T13:33:44.898Z,7.30
2023-05-08T13:36:14.760Z,7.20
2023-05-08T13:38:44.537Z,7.60
2023-05-08T13:41:25.270Z,7.13
2023-05-08T13:43:55.044Z,7.60
2023-05-08T13:46:24.967Z,7.70
2023-05-08T13:48:54.780Z,7.43
2023-05-08T13:51:24.535Z,7.67
2023-05-08T13:53:54.338Z,8.03
2023-05-08T13:56:26.786Z,7.90
2023-05-08T13:58:56.597Z,7.93
2023-05-08T14:01:27.961Z,7.47
2023-05-08T14:03:58.149Z,8.13
2023-05-08T14:06:28.111Z,7.50
2023-05-08T14:08:57.887Z,7.70
2023-05-08T14:11:30.378Z,7.13
2023-05-08T14:14:00.240Z,6.40
2023-05-08T14:16:31.068Z,7.17
2023-05-08T14:19:01.344Z,7.20
2023-05-08T14:21:31.525Z,6.80
2023-05-08T14:24:01.450Z,7.17
2023-05-08T14:26:33.811Z,6.00
2023-05-08T14:29:03.612Z,6.37
2023-05-08T14:31:33.439Z,6.80
2023-05-08T14:34:03.280Z,6.30
2023-05-08T14:36:33.053Z,6.50
2023-05-08T14:39:03.124Z,5.47
2023-05-08T14:41:35.527Z,5.90
2023-05-08T14:44:05.365Z,6.33
2023-05-08T14:46:35.228Z,6.43
2023-05-08T14:49:05.621Z,6.33
2023-05-08T14:51:35.464Z,5.97
2023-05-08T14:54:05.644Z,6.20
2023-05-08T14:56:47.118Z,6.23
2023-05-08T14:59:17.556Z,5.40
2023-05-08T15:01:47.457Z,6.30
2023-05-08T15:04:17.429Z,6.20
2023-05-08T15:06:47.244Z,6.27
2023-05-08T15:09:17.222Z,6.50
2023-05-08T15:11:49.613Z,5.70
2023-05-08T15:14:19.424Z,5.50
2023-05-08T15:16:49.351Z,5.57
2023-05-08T15:19:19.617Z,5.50
2023-05-08T15:21:49.394Z,5.80
2023-05-08T15:24:19.205Z,5.50
2023-05-08T15:26:51.708Z,5.70
2023-05-08T15:29:21.510Z,6.00
2023-05-08T15:31:53.330Z,5.43
2023-05-08T15:34:26.261Z,5.27
2023-05-08T15:36:56.330Z,5.63
2023-05-08T15:39:26.216Z,5.50
2023-05-08T15:41:58.645Z,5.27
2023-05-08T15:44:42.140Z,5.70
2023-05-08T15:47:19.632Z,5.63
2023-05-08T15:49:49.481Z,5.97
2023-05-08T15:52:19.990Z,5.07
2023-05-08T15:54:50.077Z,5.00
2023-05-08T15:57:22.454Z,5.30
2023-05-08T15:59:52.300Z,5.43
2023-05-08T16:02:22.206Z,4.63
2023-05-08T16:04:52.051Z,5.37
2023-05-08T16:07:21.879Z,4.97
2023-05-08T16:09:51.633Z,5.20
2023-05-08T16:12:24.071Z,4.60
2023-05-08T16:14:53.854Z,4.20
2023-05-08T16:17:23.670Z,5.00
2023-05-08T16:19:53.528Z,4.90
2023-05-08T16:22:23.441Z,5.57
2023-05-08T16:24:55.949Z,5.47
2023-05-08T16:27:28.506Z,5.10
2023-05-08T16:29:58.439Z,5.10
2023-05-08T16:32:28.435Z,6.20
2023-05-08T16:34:58.392Z,4.73
2023-05-08T16:37:28.340Z,4.83
2023-05-08T16:39:58.285Z,4.73
2023-05-08T16:42:30.935Z,4.67
2023-05-08T16:45:00.853Z,4.80
2023-05-08T16:47:30.857Z,5.83
2023-05-08T16:50:00.857Z,6.53
2023-05-08T16:52:30.892Z,4.97
2023-05-08T16:55:01.395Z,5.43
2023-05-08T16:57:34.199Z,4.90
2023-05-08T17:00:04.855Z,4.97
2023-05-08T17:02:35.106Z,5.70
2023-05-08T17:05:05.140Z,5.07
2023-05-08T17:07:35.050Z,4.50
2023-05-08T17:10:05.034Z,4.87
2023-05-08T17:12:37.753Z,5.60
2023-05-08T17:15:08.916Z,5.17
2023-05-08T17:17:38.881Z,5.30
2023-05-08T17:20:10.376Z,4.63
2023-05-08T17:22:40.266Z,5.27
2023-05-08T17:25:11.567Z,4.87
2023-05-08T17:27:44.008Z,5.63
2023-05-08T17:30:15.120Z,4.93
2023-05-08T17:32:46.427Z,5.53
2023-05-08T17:35:16.329Z,5.37
2023-05-08T17:37:46.232Z,4.60
2023-05-08T17:40:16.503Z,4.60
2023-05-08T17:42:48.936Z,5.00
2023-05-08T17:45:18.978Z,4.70
2023-05-08T17:47:48.854Z,4.73
2023-05-08T17:50:18.806Z,4.27
2023-05-08T17:52:48.612Z,4.23
2023-05-08T17:55:18.480Z,4.83
2023-05-08T17:57:50.948Z,4.90
2023-05-08T18:00:21.482Z,4.83
2023-05-08T18:02:51.384Z,4.23
2023-05-08T18:05:21.561Z,4.50
2023-05-08T18:07:52.427Z,4.90
2023-05-08T18:10:22.614Z,4.53
2023-05-08T18:12:55.056Z,5.00
2023-05-08T18:15:24.902Z,4.33
2023-05-08T18:17:54.789Z,4.70
2023-05-08T18:20:24.631Z,4.03
2023-05-08T18:22:54.451Z,4.80
2023-05-08T18:25:24.628Z,4.53
2023-05-08T18:27:59.027Z,4.67
2023-05-08T18:30:28.921Z,4.53
2023-05-08T18:32:58.786Z,4.33
2023-05-08T18:35:28.781Z,4.47
2023-05-08T18:37:58.613Z,4.87
2023-05-08T18:40:28.427Z,5.13
2023-05-08T18:43:00.879Z,4.30
2023-05-08T18:45:30.765Z,4.33
2023-05-08T18:48:00.651Z,4.30
2023-05-08T18:50:30.616Z,4.57
2023-05-08T18:53:00.469Z,4.90
2023-05-08T18:55:30.385Z,4.50
2023-05-08T18:58:02.983Z,5.20
2023-05-08T19:00:32.990Z,4.77
2023-05-08T19:03:03.074Z,5.17
2023-05-08T19:05:32.986Z,5.50
2023-05-08T19:08:02.849Z,4.80
2023-05-08T19:10:32.728Z,5.40
2023-05-08T19:13:05.567Z,5.37
2023-05-08T19:15:35.777Z,4.50
2023-05-08T19:18:06.574Z,4.80
2023-05-08T19:20:36.496Z,5.10
2023-05-08T19:23:06.322Z,4.23
2023-05-08T19:25:36.192Z,3.73
2023-05-08T19:28:08.721Z,5.23
2023-05-08T19:30:38.554Z,4.70
2023-05-08T19:33:08.586Z,4.40
2023-05-08T19:35:38.436Z,4.13
2023-05-08T19:38:08.283Z,4.83
2023-05-08T19:40:48.376Z,5.33
2023-05-08T19:43:28.805Z,5.23
2023-05-08T19:45:58.758Z,5.17
2023-05-08T19:48:28.765Z,5.40
2023-05-08T19:50:58.593Z,4.30
2023-05-08T19:53:28.577Z,4.70
2023-05-08T19:55:58.522Z,5.37
2023-05-08T19:58:31.861Z,4.73
2023-05-08T20:01:02.002Z,5.07
2023-05-08T20:03:31.899Z,5.10
2023-05-08T20:06:01.826Z,5.70
2023-05-08T20:08:31.699Z,6.00
2023-05-08T20:11:02.602Z,5.10
2023-05-08T20:13:35.186Z,4.97
2023-05-08T20:16:05.076Z,4.87
2023-05-08T20:18:36.929Z,4.60
2023-05-08T20:21:06.860Z,4.83
2023-05-08T20:23:37.880Z,4.43
2023-05-08T20:26:08.727Z,4.60
2023-05-08T20:28:41.364Z,4.73
2023-05-08T20:31:11.331Z,4.87
2023-05-08T20:33:41.225Z,4.70
2023-05-08T20:36:11.099Z,4.90
2023-05-08T20:38:41.082Z,4.00
2023-05-08T20:41:10.962Z,4.67
2023-05-08T20:43:43.882Z,4.37
2023-05-08T20:46:13.861Z,4.37
2023-05-08T20:48:43.821Z,4.70
2023-05-08T20:51:15.454Z,4.17
2023-05-08T20:53:45.922Z,3.97
2023-05-08T20:56:18.867Z,4.33
2023-05-08T20:58:51.908Z,4.20
2023-05-08T21:01:21.971Z,3.67
2023-05-08T21:03:51.916Z,4.47
2023-05-08T21:06:21.976Z,3.63
2023-05-08T21:08:51.919Z,4.07
2023-05-08T21:11:22.364Z,3.10
2023-05-08T21:13:55.067Z,3.23
2023-05-08T21:16:26.754Z,4.53
2023-05-08T21:18:58.369Z,3.40
2023-05-08T21:21:28.475Z,3.33
2023-05-08T21:23:58.279Z,3.77
2023-05-08T21:26:28.088Z,3.40
2023-05-08T21:29:02.533Z,3.50
2023-05-08T21:31:32.370Z,3.70
2023-05-08T21:34:02.247Z,3.40
2023-05-08T21:36:32.397Z,2.60
2023-05-08T21:39:02.232Z,3.77
2023-05-08T21:41:33.262Z,3.53
2023-05-08T21:44:05.751Z,3.60
2023-05-08T21:46:35.648Z,3.50
2023-05-08T21:49:05.858Z,3.30
2023-05-08T21:51:36.059Z,2.90
2023-05-08T21:54:05.922Z,2.70
2023-05-08T21:56:35.753Z,2.70
2023-05-08T21:59:08.257Z,3.00
2023-05-08T22:01:38.208Z,2.73
2023-05-08T22:04:08.095Z,2.87
2023-05-08T22:06:37.905Z,3.00
2023-05-08T22:09:07.783Z,2.97
2023-05-08T22:11:37.622Z,3.30
2023-05-08T22:14:10.146Z,3.80
2023-05-08T22:16:39.954Z,2.87
2023-05-08T22:19:10.100Z,2.73
2023-05-08T22:21:39.943Z,2.43
2023-05-08T22:24:10.860Z,2.33
2023-05-08T22:26:40.706Z,2.20
2023-05-08T22:29:13.169Z,2.27
2023-05-08T22:31:43.034Z,2.47
2023-05-08T22:34:12.880Z,2.40
2023-05-08T22:36:42.973Z,2.30
2023-05-08T22:39:13.127Z,2.10
2023-05-08T22:41:43.175Z,2.13
2023-05-08T22:44:15.846Z,2.67
2023-05-08T22:46:45.835Z,2.20
2023-05-08T22:49:15.781Z,2.63
2023-05-08T22:51:45.658Z,2.47
2023-05-08T22:54:15.473Z,2.10
2023-05-08T22:56:45.368Z,2.30
2023-05-08T22:59:17.810Z,2.20
2023-05-08T23:01:47.614Z,1.90
2023-05-08T23:04:17.519Z,1.97
2023-05-08T23:06:47.367Z,1.50
2023-05-08T23:09:17.181Z,2.93
2023-05-08T23:11:47.594Z,4.10
2023-05-08T23:14:20.077Z,3.50
2023-05-08T23:16:50.029Z,3.70
2023-05-08T23:19:19.874Z,4.60
2023-05-08T23:21:49.699Z,5.10
2023-05-08T23:24:20.029Z,4.30
2023-05-08T23:26:52.626Z,4.20
2023-05-08T23:29:25.048Z,4.43
2023-05-08T23:31:54.885Z,5.10
2023-05-08T23:34:24.716Z,5.13
2023-05-08T23:36:54.565Z,3.90
2023-05-08T23:39:24.416Z,3.90
2023-05-08T23:41:54.270Z,4.40
2023-05-08T23:44:27.008Z,3.77
2023-05-08T23:46:56.871Z,3.50
2023-05-08T23:49:26.727Z,3.30
2023-05-08T23:51:56.622Z,3.13
2023-05-08T23:54:26.417Z,2.80
2023-05-08T23:56:56.340Z,2.83
2023-05-08T23:59:28.862Z,3.00
